RKTN/TAE METAR and TAF weather

Enter ICAO airport designator
Station Type Date Time Source
RKTN METAR 2019/02/23 00:00 UTC NOAA

RKTN 230000Z 02001KT CAVOK 02/M02 Q1024


Station Type Date Time Source
RKTN Decoded METAR 2019/02/23 00:00 UTC NOAA

Taegu Ab, Korea, South (RKTN) 35-54N 128-39E 37M
Feb 22, 2019 - 07:00 PM EST / 2019.02.23 0000 UTC
Wind: from the NNE (020 degrees) at 1 MPH (1 KT):0
Visibility: greater than 7 mile(s):0
Temperature: 35 F (2 C)
Dew Point: 28 F (-2 C)
Relative Humidity: 74%
Pressure (altimeter): 30.24 in. Hg (1024 hPa)
ob: RKTN 230000Z 02001KT CAVOK 02/M02 Q1024
cycle: 0

Station Type Date Time Source
RKTN TAF 2019/02/22 18:06 UTC NOAA

TAF RKTN 221700Z 2218/2324 31006KT CAVOK TNM01/2221Z TX13/2307Z
BECMG 2302/2303 13006KT


Example: see airport list